Main page
METAR-TAF:

METAR-TAF

Airports :

Larestan International Airport

Lar, Iran

latitude: 27-40-26N, longitude: 054-22-53E, elevation: 792 m

Current weather observation

The report was made 31 minutes ago, at 09:00 UTC
Calm wind
Temperature 38°C
Humidity 15%
Pressure 1008 hPa
Visibility 10 km or more
no clouds below 1500 m and no cumulonimbus

METAR: OISL 220900Z 00000KT CAVOK 38/07 Q1008 A2978 NOSIG

Time: 14:01 (09:31 UTC)

Forecast

The report was made 3 hours and 41 minutes ago, at 05:50 UTC
Forecast valid from 22 at 06 UTC to 23 at 12 UTC
Wind 7 kt from the West
Visibility: 8000 m

TAF: OISL 220550Z 2206/2312 27007KT 8000 NSC

Weather observations and forecasts of more than 4000 airports (METAR and TAF reports).

The available stations are represented by yellow and red dots on the map.

Hover mouse over dot to see the name of the station.

Then click to see weather observations and forecasts.

To change the map : click on the green buttons with a black cross to zoom in, on the green button with a dash to zoom out, or on the green arrows for adjacent maps.


METAR-TAF: